Time;durP1;ratioP1;P1;durP2;ratioP2;P2;SDS_P1;SDS_P2;PMS_P1;PMS_P2;Temp;Humidity;BMP_temperature;BMP_pressure;BME280_temperature;BME280_humidity;BME280_pressure;Samples;Min_cycle;Max_cycle;Signal;HPM_P1;HPM_P2
2023/03/17 00:02:08;;;;;;;;;;;22.10;46.00;;;;;;6158204;29;19907;-45
2023/03/17 00:05:13;;;;;;;;;;;22.60;46.40;;;;;;6157928;29;19957;-45
2023/03/17 00:08:18;;;;;;;;;;;21.90;45.70;;;;;;6158344;29;19917;-46
2023/03/17 00:11:21;;;;;;;;;;;21.80;45.70;;;;;;6157669;28;19911;-47
2023/03/17 00:14:22;;;;;;;;;;;22.10;45.90;;;;;;6158017;28;19910;-47
2023/03/17 00:17:24;;;;;;;;;;;22.20;46.20;;;;;;6159435;28;19914;-46
2023/03/17 00:20:26;;;;;;;;;;;22.30;46.20;;;;;;6162041;28;19927;-47
2023/03/17 00:23:28;;;;;;;;;;;22.30;46.10;;;;;;6161057;28;19926;-47
2023/03/17 00:26:32;;;;;;;;;;;22.00;46.10;;;;;;6161497;29;19939;-47
2023/03/17 00:29:33;;;;;;;;;;;21.90;46.10;;;;;;6161562;29;19956;-46
2023/03/17 00:32:36;;;;;;;;;;;22.00;46.20;;;;;;6161899;29;19922;-46
2023/03/17 00:35:39;;;;;;;;;;;22.60;46.50;;;;;;6161762;29;19969;-49
2023/03/17 00:38:40;;;;;;;;;;;21.90;46.10;;;;;;6161477;29;19917;-44
2023/03/17 00:41:42;;;;;;;;;;;22.00;46.30;;;;;;6161322;29;19907;-50
2023/03/17 00:44:44;;;;;;;;;;;21.90;46.10;;;;;;6159929;29;19931;-48
2023/03/17 00:47:48;;;;;;;;;;;21.90;46.20;;;;;;6160493;29;19911;-48
2023/03/17 00:50:50;;;;;;;;;;;22.30;46.40;;;;;;6160845;28;19934;-47
2023/03/17 00:53:54;;;;;;;;;;;22.30;46.40;;;;;;6161520;29;19926;-48
2023/03/17 00:56:55;;;;;;;;;;;21.90;46.30;;;;;;6161544;29;19922;-47
2023/03/17 00:59:56;;;;;;;;;;;21.90;46.30;;;;;;6161176;29;19910;-46
2023/03/17 01:02:58;;;;;;;;;;;21.90;46.30;;;;;;6161385;29;19927;-47
2023/03/17 01:06:01;;;;;;;;;;;22.30;46.40;;;;;;6161122;29;19923;-44
2023/03/17 01:09:04;;;;;;;;;;;21.70;46.20;;;;;;6159966;28;19930;-46
2023/03/17 01:12:06;;;;;;;;;;;21.80;46.30;;;;;;6160536;29;19911;-44
2023/03/17 01:15:09;;;;;;;;;;;22.30;46.50;;;;;;6161011;29;19923;-45
2023/03/17 01:18:13;;;;;;;;;;;21.90;46.40;;;;;;6161155;28;19930;-44
2023/03/17 01:21:14;;;;;;;;;;;21.90;46.50;;;;;;6160122;29;19927;-48
2023/03/17 01:24:15;;;;;;;;;;;22.20;46.50;;;;;;6160691;29;19910;-45
2023/03/17 01:27:18;;;;;;;;;;;21.90;46.50;;;;;;6158294;29;19929;-46
2023/03/17 01:30:22;;;;;;;;;;;22.20;46.60;;;;;;6159812;29;19907;-47
2023/03/17 01:33:25;;;;;;;;;;;21.80;46.30;;;;;;6160997;29;19919;-47
2023/03/17 01:36:26;;;;;;;;;;;22.50;46.80;;;;;;6160854;29;19982;-46
2023/03/17 01:39:27;;;;;;;;;;;22.20;46.80;;;;;;6160953;28;19907;-47
2023/03/17 01:42:29;;;;;;;;;;;21.80;46.30;;;;;;6160922;29;19939;-46
2023/03/17 01:45:41;;;;;;;;;;;21.70;46.30;;;;;;6160510;29;19919;-50
2023/03/17 01:48:44;;;;;;;;;;;21.70;46.30;;;;;;6160544;28;19938;-48
2023/03/17 01:51:51;;;;;;;;;;;22.30;46.80;;;;;;6144095;29;19907;-45
2023/03/17 01:54:57;;;;;;;;;;;21.80;46.40;;;;;;6160091;29;19917;-46
2023/03/17 01:57:59;;;;;;;;;;;21.70;46.30;;;;;;6160422;29;19911;-48
2023/03/17 02:01:00;;;;;;;;;;;21.80;46.50;;;;;;6160205;29;19922;-46
2023/03/17 02:04:05;;;;;;;;;;;21.70;46.60;;;;;;6159963;29;19911;-46
2023/03/17 02:07:09;;;;;;;;;;;21.80;46.40;;;;;;6146799;29;19922;-58
2023/03/17 02:10:18;;;;;;;;;;;21.70;46.70;;;;;;6146517;23;19929;-49
2023/03/17 02:13:22;;;;;;;;;;;21.70;46.40;;;;;;6132917;29;19929;-51
2023/03/17 02:16:29;;;;;;;;;;;22.10;46.60;;;;;;6133002;29;20379;-50
2023/03/17 02:19:33;;;;;;;;;;;21.70;46.40;;;;;;6131364;29;19930;-49
2023/03/17 02:22:35;;;;;;;;;;;22.10;46.70;;;;;;6132440;29;19922;-49
2023/03/17 02:25:37;;;;;;;;;;;21.70;46.50;;;;;;6132513;28;20397;-50
2023/03/17 02:28:39;;;;;;;;;;;21.80;46.60;;;;;;6133446;29;20434;-49
2023/03/17 02:31:43;;;;;;;;;;;21.80;46.60;;;;;;6134063;29;20398;-49
2023/03/17 02:34:45;;;;;;;;;;;21.80;46.70;;;;;;6133965;29;19922;-51
2023/03/17 02:37:47;;;;;;;;;;;22.50;47.00;;;;;;6133447;28;19930;-48
2023/03/17 02:40:48;;;;;;;;;;;21.70;46.60;;;;;;6132621;29;19922;-50
2023/03/17 02:43:52;;;;;;;;;;;21.60;46.70;;;;;;6133068;29;20394;-49
2023/03/17 02:46:54;;;;;;;;;;;21.80;46.30;;;;;;6133898;29;20454;-51
2023/03/17 02:49:55;;;;;;;;;;;21.60;46.60;;;;;;6133124;28;19923;-50
2023/03/17 02:52:57;;;;;;;;;;;21.90;46.70;;;;;;6133058;29;19930;-50
2023/03/17 02:56:02;;;;;;;;;;;21.70;46.70;;;;;;6132522;29;19973;-48
2023/03/17 02:59:07;;;;;;;;;;;21.70;46.60;;;;;;6133890;29;19922;-51
2023/03/17 03:02:09;;;;;;;;;;;21.70;44.60;;;;;;6134187;29;20302;-49
2023/03/17 03:05:10;;;;;;;;;;;22.10;46.90;;;;;;6131718;29;19927;-49
2023/03/17 03:08:13;;;;;;;;;;;22.30;47.10;;;;;;6130586;29;19926;-49
2023/03/17 03:11:14;;;;;;;;;;;21.60;46.60;;;;;;6129891;29;19922;-50
2023/03/17 03:14:16;;;;;;;;;;;21.70;46.90;;;;;;6130243;28;19929;-50
2023/03/17 03:17:17;;;;;;;;;;;21.70;46.80;;;;;;6129855;29;19924;-51
2023/03/17 03:20:19;;;;;;;;;;;21.60;46.70;;;;;;6129927;28;20259;-51
2023/03/17 03:23:21;;;;;;;;;;;21.90;46.80;;;;;;6130151;29;19930;-52
2023/03/17 03:26:23;;;;;;;;;;;21.70;46.80;;;;;;6130207;29;20275;-49
2023/03/17 03:29:25;;;;;;;;;;;21.70;46.90;;;;;;6127814;29;19970;-51
2023/03/17 03:32:27;;;;;;;;;;;21.70;46.90;;;;;;6129958;28;19966;-49
2023/03/17 03:35:28;;;;;;;;;;;21.70;46.90;;;;;;6129268;29;19922;-51
2023/03/17 03:38:30;;;;;;;;;;;22.20;47.00;;;;;;6129518;29;19974;-49
2023/03/17 03:41:32;;;;;;;;;;;21.70;46.90;;;;;;6129917;29;19930;-50
2023/03/17 03:44:34;;;;;;;;;;;22.00;47.10;;;;;;6129174;29;20379;-50
2023/03/17 03:47:38;;;;;;;;;;;21.70;46.90;;;;;;6129741;29;20025;-51
2023/03/17 03:50:39;;;;;;;;;;;21.50;44.70;;;;;;6128939;29;19978;-49
2023/03/17 03:53:41;;;;;;;;;;;22.00;47.10;;;;;;6127794;29;19926;-48
2023/03/17 03:56:43;;;;;;;;;;;21.90;47.10;;;;;;6128638;29;20343;-50
2023/03/17 03:59:44;;;;;;;;;;;21.50;46.80;;;;;;6128833;29;19922;-48
2023/03/17 04:02:47;;;;;;;;;;;21.60;46.90;;;;;;6128412;29;19922;-47
2023/03/17 04:05:48;;;;;;;;;;;21.70;47.50;;;;;;6127885;29;19927;-49
2023/03/17 04:08:53;;;;;;;;;;;22.00;46.80;;;;;;6127579;29;19925;-49
2023/03/17 04:11:57;;;;;;;;;;;21.90;47.20;;;;;;6128544;29;19929;-51
2023/03/17 04:14:58;;;;;;;;;;;21.60;46.90;;;;;;6128664;29;19947;-52
2023/03/17 04:17:59;;;;;;;;;;;21.90;47.00;;;;;;6129007;29;19930;-48
2023/03/17 04:21:01;;;;;;;;;;;21.70;47.00;;;;;;6129576;29;19926;-49
2023/03/17 04:24:03;;;;;;;;;;;21.90;47.20;;;;;;6129700;29;19923;-50
2023/03/17 04:27:06;;;;;;;;;;;21.50;47.00;;;;;;6129882;29;19923;-50
2023/03/17 04:30:09;;;;;;;;;;;21.70;46.90;;;;;;6129707;29;20359;-48
2023/03/17 04:33:11;;;;;;;;;;;21.40;46.80;;;;;;6130289;29;19927;-49
2023/03/17 04:36:18;;;;;;;;;;;21.90;47.20;;;;;;6129292;29;19947;-51
2023/03/17 04:39:20;;;;;;;;;;;22.10;47.20;;;;;;6129034;29;19947;-50
2023/03/17 04:42:21;;;;;;;;;;;21.80;47.20;;;;;;6129165;29;19945;-48
2023/03/17 04:45:23;;;;;;;;;;;21.50;47.00;;;;;;6127972;29;19931;-51
2023/03/17 04:48:24;;;;;;;;;;;21.60;46.90;;;;;;6128341;29;19922;-46
2023/03/17 04:51:26;;;;;;;;;;;21.40;46.90;;;;;;6127739;29;19929;-51
2023/03/17 04:54:27;;;;;;;;;;;21.30;46.90;;;;;;6127490;29;19930;-51
2023/03/17 04:57:29;;;;;;;;;;;21.30;46.90;;;;;;6128282;29;19922;-51
2023/03/17 05:00:32;;;;;;;;;;;21.30;47.00;;;;;;6128314;29;19933;-48
2023/03/17 05:03:34;;;;;;;;;;;21.40;47.00;;;;;;6129295;29;19927;-51
2023/03/17 05:06:36;;;;;;;;;;;21.40;47.00;;;;;;6131808;29;20014;-46
2023/03/17 05:09:39;;;;;;;;;;;21.60;47.10;;;;;;6131235;29;19994;-51
2023/03/17 05:12:40;;;;;;;;;;;22.10;47.40;;;;;;6131141;29;19954;-51
2023/03/17 05:15:43;;;;;;;;;;;21.40;47.10;;;;;;6131257;29;19930;-51
2023/03/17 05:18:44;;;;;;;;;;;21.60;47.10;;;;;;6131083;29;19929;-50
2023/03/17 05:21:46;;;;;;;;;;;21.50;47.10;;;;;;6131537;29;19978;-46
2023/03/17 05:24:48;;;;;;;;;;;21.40;47.10;;;;;;6131156;29;19934;-49
2023/03/17 05:27:50;;;;;;;;;;;21.50;47.10;;;;;;6130810;29;19930;-48
2023/03/17 05:30:52;;;;;;;;;;;21.50;47.30;;;;;;6130451;29;19926;-48
2023/03/17 05:33:53;;;;;;;;;;;21.40;47.10;;;;;;6129912;29;19923;-51
2023/03/17 05:36:55;;;;;;;;;;;21.60;47.30;;;;;;6130762;29;19923;-49
2023/03/17 05:40:01;;;;;;;;;;;22.00;47.40;;;;;;6130613;29;20398;-50
2023/03/17 05:43:03;;;;;;;;;;;21.60;47.30;;;;;;6130633;29;20282;-50
2023/03/17 05:46:08;;;;;;;;;;;21.40;47.20;;;;;;6130206;29;19973;-49
2023/03/17 05:49:09;;;;;;;;;;;21.40;47.10;;;;;;6130601;29;19923;-48
2023/03/17 05:52:10;;;;;;;;;;;21.80;47.50;;;;;;6130806;29;19985;-48
2023/03/17 05:55:12;;;;;;;;;;;21.70;47.30;;;;;;6130688;29;19978;-46
2023/03/17 05:58:15;;;;;;;;;;;21.70;47.40;;;;;;6130791;29;20358;-50
2023/03/17 06:01:17;;;;;;;;;;;21.40;47.10;;;;;;6130717;29;19922;-51
2023/03/17 06:04:18;;;;;;;;;;;21.80;47.40;;;;;;6130227;29;19973;-49
2023/03/17 06:07:22;;;;;;;;;;;21.60;47.40;;;;;;6130171;29;19926;-50
2023/03/17 06:10:24;;;;;;;;;;;21.30;45.60;;;;;;6130329;29;19974;-49
2023/03/17 06:13:25;;;;;;;;;;;21.50;47.30;;;;;;6130166;29;20310;-50
2023/03/17 06:16:29;;;;;;;;;;;21.80;47.50;;;;;;6129031;29;19923;-49
2023/03/17 06:19:30;;;;;;;;;;;21.40;47.30;;;;;;6130200;29;19934;-50
2023/03/17 06:22:32;;;;;;;;;;;21.50;47.50;;;;;;6131715;29;19922;-51
2023/03/17 06:25:34;;;;;;;;;;;21.70;47.20;;;;;;6130976;29;20263;-51
2023/03/17 06:28:35;;;;;;;;;;;21.80;47.50;;;;;;6129801;29;19922;-49
2023/03/17 06:31:38;;;;;;;;;;;21.70;47.50;;;;;;6130386;29;19923;-51
2023/03/17 06:34:40;;;;;;;;;;;21.40;47.40;;;;;;6131323;29;20271;-52
2023/03/17 06:37:45;;;;;;;;;;;21.70;47.30;;;;;;6130745;29;20367;-48
2023/03/17 06:40:48;;;;;;;;;;;21.90;45.60;;;;;;6129817;29;20355;-52
2023/03/17 06:43:51;;;;;;;;;;;21.50;47.50;;;;;;6130101;29;19922;-52
2023/03/17 06:46:53;;;;;;;;;;;21.30;47.40;;;;;;6129827;29;19922;-52
2023/03/17 06:49:54;;;;;;;;;;;21.40;47.40;;;;;;6130316;29;20390;-51
2023/03/17 06:52:55;;;;;;;;;;;21.40;47.60;;;;;;6129486;29;19974;-52
2023/03/17 06:55:57;;;;;;;;;;;21.50;47.60;;;;;;6130027;29;19930;-51
2023/03/17 06:58:59;;;;;;;;;;;21.10;47.50;;;;;;6131642;29;19922;-52
2023/03/17 07:02:00;;;;;;;;;;;21.40;47.20;;;;;;6132582;29;20386;-51
2023/03/17 07:05:03;;;;;;;;;;;21.30;47.50;;;;;;6133866;29;20299;-48
2023/03/17 07:08:07;;;;;;;;;;;21.80;47.60;;;;;;6134047;29;19930;-52
2023/03/17 07:11:09;;;;;;;;;;;21.90;47.60;;;;;;6134406;29;19950;-51
2023/03/17 07:14:11;;;;;;;;;;;21.70;47.70;;;;;;6137643;29;19930;-50
2023/03/17 07:17:13;;;;;;;;;;;21.80;47.70;;;;;;6137687;29;19923;-51
2023/03/17 07:20:15;;;;;;;;;;;21.60;47.40;;;;;;6134982;29;19954;-52
2023/03/17 07:23:18;;;;;;;;;;;21.80;47.70;;;;;;6139125;29;19945;-50
2023/03/17 07:26:20;;;;;;;;;;;21.50;47.40;;;;;;6135945;29;19977;-49
2023/03/17 07:29:23;;;;;;;;;;;21.90;47.80;;;;;;6131737;29;19922;-51
2023/03/17 07:32:25;;;;;;;;;;;21.60;47.20;;;;;;6132971;29;19923;-52
2023/03/17 07:35:27;;;;;;;;;;;21.80;47.20;;;;;;6132405;29;19926;-51
2023/03/17 07:38:28;;;;;;;;;;;21.50;47.40;;;;;;6133528;29;20045;-50
2023/03/17 07:41:30;;;;;;;;;;;21.80;48.30;;;;;;6133405;29;19923;-49
2023/03/17 07:44:32;;;;;;;;;;;21.70;47.60;;;;;;6131008;29;19922;-51
2023/03/17 07:47:33;;;;;;;;;;;21.40;47.40;;;;;;6131894;28;19922;-51
2023/03/17 07:50:36;;;;;;;;;;;21.90;47.30;;;;;;6130986;29;19977;-52
2023/03/17 07:53:37;;;;;;;;;;;21.80;47.40;;;;;;6128040;29;19986;-52
2023/03/17 07:56:41;;;;;;;;;;;21.50;47.20;;;;;;6129573;29;20323;-52
2023/03/17 07:59:43;;;;;;;;;;;21.80;47.50;;;;;;6130219;28;19926;-51
2023/03/17 08:02:45;;;;;;;;;;;21.50;47.00;;;;;;6129838;29;20307;-50
2023/03/17 08:05:54;;;;;;;;;;;21.90;47.40;;;;;;6131128;29;19922;-51
2023/03/17 08:08:56;;;;;;;;;;;21.80;47.20;;;;;;6133411;29;19946;-45
2023/03/17 08:11:58;;;;;;;;;;;21.80;47.30;;;;;;6151716;28;20021;-53
2023/03/17 08:14:59;;;;;;;;;;;21.80;47.30;;;;;;6141112;29;19922;-47
2023/03/17 08:18:00;;;;;;;;;;;22.00;47.20;;;;;;6148580;29;19923;-51
2023/03/17 08:21:02;;;;;;;;;;;21.80;46.90;;;;;;6155205;28;19922;-52
2023/03/17 08:24:04;;;;;;;;;;;22.00;47.10;;;;;;6155890;29;19923;-50
2023/03/17 08:27:06;;;;;;;;;;;21.90;46.90;;;;;;6154748;29;19917;-52
2023/03/17 08:30:08;;;;;;;;;;;22.10;47.00;;;;;;6154297;29;19922;-52
2023/03/17 08:33:09;;;;;;;;;;;21.60;46.70;;;;;;6154377;29;19930;-51
2023/03/17 08:36:15;;;;;;;;;;;22.10;47.20;;;;;;6154315;29;19931;-52
2023/03/17 08:39:16;;;;;;;;;;;21.20;46.70;;;;;;6157349;28;19927;-51
2023/03/17 08:42:18;;;;;;;;;;;22.10;47.10;;;;;;6159293;29;19923;-51
2023/03/17 08:45:20;;;;;;;;;;;21.90;47.20;;;;;;6160112;29;19911;-50
2023/03/17 08:48:21;;;;;;;;;;;22.00;47.20;;;;;;6159546;29;19927;-48
2023/03/17 08:51:23;;;;;;;;;;;22.10;47.10;;;;;;6159998;29;20314;-51
2023/03/17 08:54:26;;;;;;;;;;;22.00;47.10;;;;;;6159396;28;19995;-49
2023/03/17 08:57:30;;;;;;;;;;;21.60;46.80;;;;;;6160281;29;19951;-50
2023/03/17 09:00:32;;;;;;;;;;;22.10;47.10;;;;;;6160011;28;19911;-47
2023/03/17 09:03:36;;;;;;;;;;;21.80;47.10;;;;;;6158775;29;19991;-48
2023/03/17 09:06:37;;;;;;;;;;;22.00;46.80;;;;;;6158944;29;19914;-50
2023/03/17 09:09:41;;;;;;;;;;;21.80;46.90;;;;;;6158851;29;19922;-45
2023/03/17 09:12:43;;;;;;;;;;;22.20;47.30;;;;;;6158883;28;19977;-51
2023/03/17 09:15:45;;;;;;;;;;;21.80;47.10;;;;;;6159664;28;19922;-50
2023/03/17 09:18:46;;;;;;;;;;;20.70;46.60;;;;;;6159965;29;19923;-49
2023/03/17 09:21:47;;;;;;;;;;;21.70;46.70;;;;;;6157888;29;19907;-49
2023/03/17 09:24:49;;;;;;;;;;;22.00;47.20;;;;;;6158349;28;19983;-51
2023/03/17 09:27:51;;;;;;;;;;;21.60;46.80;;;;;;6158715;29;19965;-52
2023/03/17 09:30:56;;;;;;;;;;;22.20;47.00;;;;;;6159594;29;19923;-48
2023/03/17 09:33:58;;;;;;;;;;;22.00;46.90;;;;;;6157107;29;19955;-52
2023/03/17 09:36:59;;;;;;;;;;;22.30;47.10;;;;;;6158485;29;20326;-51
2023/03/17 09:40:07;;;;;;;;;;;22.10;46.90;;;;;;6157248;29;20010;-52
2023/03/17 09:43:14;;;;;;;;;;;22.10;46.80;;;;;;6154250;29;19922;-50
2023/03/17 09:46:22;;;;;;;;;;;22.00;46.70;;;;;;6155355;29;19946;-52
2023/03/17 09:49:30;;;;;;;;;;;22.40;46.90;;;;;;6154639;28;19937;-51
2023/03/17 09:52:33;;;;;;;;;;;21.90;46.60;;;;;;6156437;29;19951;-49
2023/03/17 09:55:36;;;;;;;;;;;22.50;46.80;;;;;;6142189;29;20388;-59
2023/03/17 09:58:40;;;;;;;;;;;21.90;46.60;;;;;;6140735;29;19923;-50
2023/03/17 10:01:42;;;;;;;;;;;22.40;46.80;;;;;;6143832;29;19945;-51
2023/03/17 10:04:45;;;;;;;;;;;22.00;46.50;;;;;;6145053;29;19923;-51
2023/03/17 10:07:49;;;;;;;;;;;22.40;46.70;;;;;;6147895;28;20009;-50
2023/03/17 10:10:56;;;;;;;;;;;22.30;46.70;;;;;;6143783;29;19923;-51
2023/03/17 10:14:00;;;;;;;;;;;22.50;46.50;;;;;;6146064;28;19930;-51
2023/03/17 10:17:03;;;;;;;;;;;22.10;46.70;;;;;;6144957;29;20406;-50
2023/03/17 10:20:07;;;;;;;;;;;22.50;46.90;;;;;;6142890;29;19923;-52
2023/03/17 10:23:11;;;;;;;;;;;22.20;46.70;;;;;;6141860;29;19947;-51
2023/03/17 10:26:17;;;;;;;;;;;22.40;46.70;;;;;;6142106;29;19922;-49
2023/03/17 10:29:21;;;;;;;;;;;22.40;46.70;;;;;;6113290;29;19922;-52
2023/03/17 10:32:22;;;;;;;;;;;22.40;46.60;;;;;;6146916;29;20299;-51
2023/03/17 10:35:24;;;;;;;;;;;22.00;46.60;;;;;;6146905;29;20365;-51
2023/03/17 10:38:25;;;;;;;;;;;22.70;46.90;;;;;;6146172;29;19922;-50
2023/03/17 10:41:28;;;;;;;;;;;22.30;46.50;;;;;;6147421;29;19929;-50
2023/03/17 10:44:39;;;;;;;;;;;22.30;46.60;;;;;;6142793;29;19923;-51
2023/03/17 10:47:44;;;;;;;;;;;22.40;46.60;;;;;;6140843;29;19930;-51
2023/03/17 10:50:46;;;;;;;;;;;22.70;46.80;;;;;;6143201;29;19930;-51
2023/03/17 10:53:52;;;;;;;;;;;22.40;46.60;;;;;;6144587;29;19922;-51
2023/03/17 10:56:57;;;;;;;;;;;22.60;46.60;;;;;;6145334;29;19922;-50
2023/03/17 11:00:01;;;;;;;;;;;22.20;46.30;;;;;;6146819;29;19906;-51
2023/03/17 11:03:08;;;;;;;;;;;22.50;46.70;;;;;;6148580;29;19946;-51
2023/03/17 11:06:10;;;;;;;;;;;22.30;46.50;;;;;;6145987;29;19947;-51
2023/03/17 11:09:17;;;;;;;;;;;22.70;46.70;;;;;;6144645;29;19933;-51
2023/03/17 11:12:21;;;;;;;;;;;22.30;46.50;;;;;;6145856;29;19923;-53
2023/03/17 11:15:28;;;;;;;;;;;22.60;46.60;;;;;;6139935;29;20374;-48
2023/03/17 11:18:32;;;;;;;;;;;22.20;46.60;;;;;;6149874;29;19910;-50
2023/03/17 11:21:45;;;;;;;;;;;22.50;46.70;;;;;;6151518;29;19922;-51
2023/03/17 11:24:52;;;;;;;;;;;22.20;46.40;;;;;;6150669;29;19922;-50
2023/03/17 11:27:59;;;;;;;;;;;22.50;46.60;;;;;;6150536;29;19923;-47
2023/03/17 11:31:06;;;;;;;;;;;22.50;46.70;;;;;;6149129;29;19923;-46
2023/03/17 11:34:12;;;;;;;;;;;22.90;46.90;;;;;;6150629;29;19930;-51
2023/03/17 11:37:21;;;;;;;;;;;22.60;46.70;;;;;;6149635;29;19922;-50
2023/03/17 11:40:28;;;;;;;;;;;22.90;46.80;;;;;;6149879;29;19923;-48
2023/03/17 11:43:33;;;;;;;;;;;22.60;46.60;;;;;;6148599;29;19922;-51
2023/03/17 11:46:42;;;;;;;;;;;22.60;46.60;;;;;;6150503;29;19923;-50
2023/03/17 11:49:45;;;;;;;;;;;22.20;46.40;;;;;;6151144;29;19923;-49
2023/03/17 11:52:52;;;;;;;;;;;22.80;46.70;;;;;;6149461;29;19922;-51
2023/03/17 11:55:56;;;;;;;;;;;22.60;46.50;;;;;;6149321;29;19922;-49
2023/03/17 11:59:00;;;;;;;;;;;22.40;46.40;;;;;;6149977;29;19923;-50
2023/03/17 12:02:06;;;;;;;;;;;22.40;46.50;;;;;;6149948;29;19926;-51
2023/03/17 12:05:08;;;;;;;;;;;22.80;46.60;;;;;;6151019;29;19989;-46
2023/03/17 12:08:13;;;;;;;;;;;22.50;46.30;;;;;;6150216;29;19914;-46
2023/03/17 12:11:17;;;;;;;;;;;22.70;46.50;;;;;;6151133;29;19930;-51
2023/03/17 12:14:23;;;;;;;;;;;22.70;46.50;;;;;;6150277;29;19930;-51
2023/03/17 12:17:29;;;;;;;;;;;22.80;46.50;;;;;;6151418;29;19927;-48
2023/03/17 12:20:40;;;;;;;;;;;22.50;46.40;;;;;;6151405;29;19933;-49
2023/03/17 12:23:51;;;;;;;;;;;22.80;46.40;;;;;;6151335;29;19946;-48
2023/03/17 12:26:54;;;;;;;;;;;22.40;46.30;;;;;;6151611;29;19952;-46
2023/03/17 12:29:58;;;;;;;;;;;22.90;46.60;;;;;;6150520;29;19923;-49
2023/03/17 12:33:09;;;;;;;;;;;22.60;46.40;;;;;;6151373;29;19922;-49
2023/03/17 12:36:13;;;;;;;;;;;23.00;46.60;;;;;;6151903;29;19923;-47
2023/03/17 12:39:17;;;;;;;;;;;22.40;46.40;;;;;;6152080;29;20371;-47
2023/03/17 12:42:25;;;;;;;;;;;22.70;46.20;;;;;;6153456;29;19954;-50
2023/03/17 12:45:36;;;;;;;;;;;22.50;46.40;;;;;;6153911;29;19923;-47
2023/03/17 12:48:45;;;;;;;;;;;22.80;46.60;;;;;;6136086;28;19923;-51
2023/03/17 12:51:53;;;;;;;;;;;22.40;46.40;;;;;;6131884;29;19923;-51
2023/03/17 12:54:55;;;;;;;;;;;22.70;46.80;;;;;;6134204;28;19922;-52
2023/03/17 12:57:58;;;;;;;;;;;22.40;46.30;;;;;;6148168;29;19929;-52
2023/03/17 13:01:07;;;;;;;;;;;22.80;46.20;;;;;;6146798;29;19922;-49
2023/03/17 13:04:22;;;;;;;;;;;22.50;46.20;;;;;;6145138;29;19974;-52
2023/03/17 13:07:32;;;;;;;;;;;22.70;46.30;;;;;;6137147;29;19923;-51
2023/03/17 13:10:36;;;;;;;;;;;22.70;46.30;;;;;;6135673;29;19923;-52
2023/03/17 13:13:44;;;;;;;;;;;22.80;46.20;;;;;;6142349;29;19922;-52
2023/03/17 13:16:46;;;;;;;;;;;22.80;46.20;;;;;;6139778;29;20389;-52
2023/03/17 13:19:54;;;;;;;;;;;23.10;46.40;;;;;;6129197;28;19929;-52
2023/03/17 13:23:10;;;;;;;;;;;22.60;46.10;;;;;;6131900;29;19942;-52
2023/03/17 13:26:13;;;;;;;;;;;23.10;46.30;;;;;;6156776;28;19933;-48
2023/03/17 13:29:22;;;;;;;;;;;22.40;46.00;;;;;;6158043;28;19946;-50
2023/03/17 13:32:38;;;;;;;;;;;23.10;46.30;;;;;;6150509;29;19922;-51
2023/03/17 13:35:46;;;;;;;;;;;23.00;46.10;;;;;;6137916;29;20089;-60
2023/03/17 13:38:54;;;;;;;;;;;23.00;46.20;;;;;;6131176;29;19930;-49
2023/03/17 13:42:22;;;;;;;;;;;22.90;46.20;;;;;;6157986;29;20306;-52
2023/03/17 13:45:31;;;;;;;;;;;23.00;46.10;;;;;;6140230;28;20314;-50
2023/03/17 13:48:34;;;;;;;;;;;22.80;46.00;;;;;;6156521;29;19907;-52
2023/03/17 13:51:37;;;;;;;;;;;22.90;46.10;;;;;;6157287;28;20306;-50
2023/03/17 13:54:46;;;;;;;;;;;22.70;46.00;;;;;;6156954;29;19923;-52
2023/03/17 13:58:12;;;;;;;;;;;23.10;46.10;;;;;;6154607;29;19923;-49
2023/03/17 14:01:14;;;;;;;;;;;22.90;45.90;;;;;;6367683;23;20017;-50
2023/03/17 14:04:20;;;;;;;;;;;23.00;45.80;;;;;;6177696;29;19953;-52
2023/03/17 14:07:24;;;;;;;;;;;23.10;46.50;;;;;;6174400;29;19922;-51
2023/03/17 14:10:27;;;;;;;;;;;23.20;46.00;;;;;;6175398;28;19930;-48
2023/03/17 14:13:30;;;;;;;;;;;23.00;45.90;;;;;;6175564;28;19929;-51
2023/03/17 14:16:34;;;;;;;;;;;23.10;45.80;;;;;;6174687;28;19922;-50
2023/03/17 14:19:40;;;;;;;;;;;23.10;45.80;;;;;;6172039;28;19977;-51
2023/03/17 14:22:43;;;;;;;;;;;23.00;45.80;;;;;;6171753;28;19934;-52
2023/03/17 14:25:46;;;;;;;;;;;22.80;45.90;;;;;;6167637;28;19949;-50
2023/03/17 14:28:47;;;;;;;;;;;23.10;46.00;;;;;;6170147;28;19929;-52
2023/03/17 14:31:53;;;;;;;;;;;22.90;46.00;;;;;;6170863;28;19938;-47
2023/03/17 14:34:56;;;;;;;;;;;23.10;46.00;;;;;;6166540;28;19961;-50
2023/03/17 14:37:58;;;;;;;;;;;23.20;46.20;;;;;;6162118;28;19922;-44
2023/03/17 14:41:03;;;;;;;;;;;22.90;46.20;;;;;;6160728;28;19929;-47
2023/03/17 14:44:07;;;;;;;;;;;23.00;46.10;;;;;;6170298;28;20342;-48
2023/03/17 14:47:13;;;;;;;;;;;23.10;46.10;;;;;;6168776;29;20272;-45
2023/03/17 14:50:16;;;;;;;;;;;23.00;46.20;;;;;;6164914;28;19923;-49
2023/03/17 14:53:18;;;;;;;;;;;23.00;45.80;;;;;;6167512;28;19973;-51
2023/03/17 14:56:21;;;;;;;;;;;22.90;46.20;;;;;;6164193;29;19936;-47
2023/03/17 14:59:28;;;;;;;;;;;22.90;46.20;;;;;;6177859;28;19913;-48
2023/03/17 15:02:33;;;;;;;;;;;22.90;46.20;;;;;;6177210;28;19922;-44
2023/03/17 15:05:36;;;;;;;;;;;23.30;46.30;;;;;;6177340;28;19922;-51
2023/03/17 15:08:46;;;;;;;;;;;23.00;46.20;;;;;;6175815;28;19930;-50
2023/03/17 15:11:48;;;;;;;;;;;22.90;45.10;;;;;;6177505;28;19907;-47
2023/03/17 15:14:51;;;;;;;;;;;22.90;46.50;;;;;;6179523;28;19933;-48
2023/03/17 15:17:54;;;;;;;;;;;23.20;46.50;;;;;;6176867;28;19922;-49
2023/03/17 15:20:59;;;;;;;;;;;23.10;45.30;;;;;;6161770;29;19922;-47
2023/03/17 15:24:05;;;;;;;;;;;22.80;46.40;;;;;;6173143;28;19989;-51
2023/03/17 15:27:13;;;;;;;;;;;23.00;46.30;;;;;;6166185;28;19922;-51
2023/03/17 15:30:15;;;;;;;;;;;23.30;46.50;;;;;;6172533;28;19922;-47
2023/03/17 15:33:20;;;;;;;;;;;23.00;46.50;;;;;;6162490;28;19928;-49
2023/03/17 15:36:22;;;;;;;;;;;23.10;46.50;;;;;;6177191;28;19922;-51
2023/03/17 15:39:34;;;;;;;;;;;22.70;46.30;;;;;;6170992;28;19933;-48
2023/03/17 15:42:36;;;;;;;;;;;22.90;46.50;;;;;;6169493;28;19929;-52
2023/03/17 15:45:38;;;;;;;;;;;22.90;46.40;;;;;;6166592;28;19922;-53
2023/03/17 15:48:39;;;;;;;;;;;23.10;46.60;;;;;;6166209;28;19922;-51
2023/03/17 15:51:40;;;;;;;;;;;22.70;46.40;;;;;;6157416;28;19922;-53
2023/03/17 15:54:43;;;;;;;;;;;23.10;46.60;;;;;;6155585;28;19965;-51
2023/03/17 15:57:44;;;;;;;;;;;23.10;46.60;;;;;;6164616;28;19922;-50
2023/03/17 16:00:56;;;;;;;;;;;23.50;46.90;;;;;;6170495;28;19922;-51
2023/03/17 16:03:58;;;;;;;;;;;22.90;46.50;;;;;;6164364;29;19922;-53
2023/03/17 16:07:00;;;;;;;;;;;22.90;45.90;;;;;;6166256;28;19985;-53
2023/03/17 16:10:05;;;;;;;;;;;23.00;46.60;;;;;;6164137;28;19926;-53
2023/03/17 16:13:06;;;;;;;;;;;23.40;46.80;;;;;;6171434;28;20060;-52
2023/03/17 16:16:14;;;;;;;;;;;23.30;46.60;;;;;;6162674;28;19930;-52
2023/03/17 16:19:17;;;;;;;;;;;23.10;46.50;;;;;;6170615;28;19982;-51
2023/03/17 16:22:35;;;;;;;;;;;22.90;46.50;;;;;;6169427;29;19923;-51
2023/03/17 16:25:37;;;;;;;;;;;23.40;46.70;;;;;;6161944;29;20266;-50
2023/03/17 16:28:43;;;;;;;;;;;22.70;46.50;;;;;;6157402;28;19929;-51
2023/03/17 16:31:47;;;;;;;;;;;22.90;46.60;;;;;;6158409;28;19922;-51
2023/03/17 16:34:49;;;;;;;;;;;23.10;47.20;;;;;;6161861;28;19937;-50
2023/03/17 16:37:52;;;;;;;;;;;23.20;46.70;;;;;;6161994;28;19929;-51
2023/03/17 16:40:57;;;;;;;;;;;22.80;46.50;;;;;;6175892;28;19906;-51
2023/03/17 16:44:00;;;;;;;;;;;23.30;46.80;;;;;;6179754;28;19954;-52
2023/03/17 16:47:01;;;;;;;;;;;22.80;46.50;;;;;;6178586;28;19933;-50
2023/03/17 16:50:05;;;;;;;;;;;23.20;46.80;;;;;;6179138;28;19978;-51
2023/03/17 16:53:07;;;;;;;;;;;23.10;46.70;;;;;;6179618;28;19906;-51
2023/03/17 16:56:14;;;;;;;;;;;23.10;46.70;;;;;;6178839;28;19929;-52
2023/03/17 16:59:18;;;;;;;;;;;22.70;46.40;;;;;;6179828;28;19977;-51
2023/03/17 17:02:22;;;;;;;;;;;23.20;46.60;;;;;;6182337;29;19907;-51
2023/03/17 17:05:24;;;;;;;;;;;23.00;46.70;;;;;;6182253;29;19942;-52
2023/03/17 17:08:26;;;;;;;;;;;23.30;46.70;;;;;;6181723;29;19922;-50
2023/03/17 17:11:27;;;;;;;;;;;22.80;46.50;;;;;;6183947;28;19930;-51
2023/03/17 17:14:29;;;;;;;;;;;23.30;46.80;;;;;;6183861;28;19922;-50
2023/03/17 17:17:30;;;;;;;;;;;22.70;46.40;;;;;;6182585;28;19929;-48
2023/03/17 17:20:33;;;;;;;;;;;23.00;46.90;;;;;;6185078;28;19906;-51
2023/03/17 17:23:35;;;;;;;;;;;23.00;46.60;;;;;;6183746;28;19991;-49
2023/03/17 17:26:37;;;;;;;;;;;22.90;46.70;;;;;;6183751;28;19923;-52
2023/03/17 17:29:38;;;;;;;;;;;23.00;46.70;;;;;;6184794;28;19913;-50
2023/03/17 17:32:40;;;;;;;;;;;23.10;46.60;;;;;;6185048;28;19925;-51
2023/03/17 17:35:45;;;;;;;;;;;22.90;46.60;;;;;;6184800;28;19907;-50
2023/03/17 17:38:46;;;;;;;;;;;23.00;46.60;;;;;;6184762;28;19907;-52
2023/03/17 17:41:50;;;;;;;;;;;23.00;46.70;;;;;;6185120;28;19913;-50
2023/03/17 17:44:52;;;;;;;;;;;23.10;46.80;;;;;;6184682;28;19954;-51
2023/03/17 17:47:53;;;;;;;;;;;22.90;46.70;;;;;;6184816;28;19906;-52